createdAt,value
2022-11-30T00:01:24.045Z,30.45
2022-11-30T00:03:55.425Z,32.58
2022-11-30T00:06:23.788Z,31.00
2022-11-30T00:08:57.371Z,32.80
2022-11-30T00:11:26.344Z,31.40
2022-11-30T00:13:53.700Z,32.13
2022-11-30T00:16:21.597Z,31.98
2022-11-30T00:18:48.783Z,29.88
2022-11-30T00:21:16.215Z,31.40
2022-11-30T00:23:45.204Z,32.28
2022-11-30T00:26:15.232Z,30.05
2022-11-30T00:28:43.912Z,31.35
2022-11-30T00:31:13.770Z,30.33
2022-11-30T00:33:40.909Z,30.27
2022-11-30T00:36:19.910Z,30.55
2022-11-30T00:38:47.457Z,29.73
2022-11-30T00:41:15.333Z,30.75
2022-11-30T00:43:42.583Z,30.13
2022-11-30T00:46:09.816Z,29.58
2022-11-30T00:48:38.087Z,30.60
2022-11-30T00:51:06.350Z,30.45
2022-11-30T00:53:33.649Z,30.02
2022-11-30T00:56:00.615Z,30.30
2022-11-30T00:58:27.628Z,32.80
2022-11-30T01:00:54.653Z,28.90
2022-11-30T01:03:21.655Z,30.10
2022-11-30T01:05:48.578Z,31.33
2022-11-30T01:08:15.553Z,31.25
2022-11-30T01:10:44.239Z,30.27
2022-11-30T01:13:14.557Z,29.10
2022-11-30T01:15:44.790Z,31.60
2022-11-30T01:18:12.396Z,30.85
2022-11-30T01:20:43.204Z,29.25
2022-11-30T01:23:10.757Z,32.22
2022-11-30T01:25:38.028Z,31.35
2022-11-30T01:28:05.188Z,29.52
2022-11-30T01:30:32.463Z,31.63
2022-11-30T01:33:04.257Z,28.52
2022-11-30T01:35:31.274Z,28.58
2022-11-30T01:37:58.279Z,29.00
2022-11-30T01:40:25.332Z,30.67
2022-11-30T01:42:52.244Z,30.42
2022-11-30T01:45:19.148Z,29.35
2022-11-30T01:47:52.987Z,31.17
2022-11-30T01:50:34.559Z,28.48
2022-11-30T01:53:02.876Z,29.88
2022-11-30T01:55:32.781Z,29.52
2022-11-30T01:58:09.710Z,29.88
2022-11-30T02:00:36.857Z,31.00
2022-11-30T02:03:03.850Z,29.30
2022-11-30T02:05:33.135Z,28.33
2022-11-30T02:08:01.194Z,28.80
2022-11-30T02:10:32.292Z,29.13
2022-11-30T02:13:23.842Z,29.98
2022-11-30T02:16:15.525Z,28.08
2022-11-30T02:19:14.753Z,29.70
2022-11-30T02:22:20.396Z,28.65
2022-11-30T02:25:09.030Z,28.40
2022-11-30T02:28:12.645Z,28.55
2022-11-30T02:30:46.577Z,28.75
2022-11-30T02:33:20.665Z,30.60
2022-11-30T02:35:54.700Z,28.83
2022-11-30T02:38:24.103Z,30.02
2022-11-30T02:40:51.117Z,30.20
2022-11-30T02:43:19.896Z,29.80
2022-11-30T02:46:26.679Z,28.65
2022-11-30T02:48:59.089Z,27.58
2022-11-30T02:51:29.620Z,30.13
2022-11-30T02:53:57.017Z,28.67
2022-11-30T02:56:24.944Z,30.50
2022-11-30T02:58:52.614Z,28.58
2022-11-30T03:01:19.670Z,30.08
2022-11-30T03:03:46.715Z,29.83
2022-11-30T03:06:13.712Z,30.42
2022-11-30T03:08:40.646Z,29.73
2022-11-30T03:11:07.648Z,28.80
2022-11-30T03:13:34.917Z,29.00
2022-11-30T03:16:13.237Z,29.83
2022-11-30T03:18:40.605Z,29.38
2022-11-30T03:21:12.178Z,26.95
2022-11-30T03:23:39.759Z,27.95
2022-11-30T03:26:08.300Z,28.63
2022-11-30T03:28:38.424Z,29.60
2022-11-30T03:31:05.737Z,28.13
2022-11-30T03:33:32.796Z,29.45
2022-11-30T03:36:05.412Z,29.75
2022-11-30T03:38:32.976Z,29.35
2022-11-30T03:41:02.116Z,30.25
2022-11-30T03:43:29.344Z,28.55
2022-11-30T03:45:56.392Z,27.42
2022-11-30T03:48:24.172Z,29.65
2022-11-30T03:50:51.179Z,28.92
2022-11-30T03:53:19.673Z,29.13
2022-11-30T03:55:46.988Z,28.70
2022-11-30T03:58:13.898Z,26.73
2022-11-30T04:00:41.007Z,28.17
2022-11-30T04:03:08.039Z,27.85
2022-11-30T04:05:35.035Z,27.23
2022-11-30T04:08:02.081Z,28.73
2022-11-30T04:10:29.051Z,26.05
2022-11-30T04:12:55.980Z,27.30
2022-11-30T04:15:22.993Z,29.05
2022-11-30T04:17:49.964Z,28.67
2022-11-30T04:20:16.997Z,27.67
2022-11-30T04:22:45.170Z,25.73
2022-11-30T04:25:12.149Z,26.05
2022-11-30T04:27:39.205Z,27.98
2022-11-30T04:30:08.035Z,25.98
2022-11-30T04:32:35.052Z,27.92
2022-11-30T04:35:02.027Z,28.42
2022-11-30T04:37:29.073Z,26.05
2022-11-30T04:39:56.106Z,27.33
2022-11-30T04:42:23.091Z,27.40
2022-11-30T04:44:50.147Z,26.42
2022-11-30T04:47:17.265Z,26.73
2022-11-30T04:49:44.237Z,25.92
2022-11-30T04:52:11.187Z,27.08
2022-11-30T04:54:38.116Z,27.38
2022-11-30T04:57:06.471Z,25.98
2022-11-30T04:59:33.496Z,28.92
2022-11-30T05:02:00.508Z,27.02
2022-11-30T05:04:27.667Z,27.10
2022-11-30T05:06:54.732Z,27.35
2022-11-30T05:09:21.657Z,27.40
2022-11-30T05:11:49.410Z,25.45
2022-11-30T05:14:16.461Z,25.80
2022-11-30T05:16:43.518Z,26.17
2022-11-30T05:19:10.487Z,26.80
2022-11-30T05:21:40.138Z,23.98
2022-11-30T05:24:11.196Z,24.23
2022-11-30T05:26:38.492Z,24.10
2022-11-30T05:29:06.337Z,25.50
2022-11-30T05:31:33.802Z,24.60
2022-11-30T05:34:00.857Z,25.63
2022-11-30T05:36:27.810Z,25.58
2022-11-30T05:38:54.791Z,24.73
2022-11-30T05:41:21.794Z,23.75
2022-11-30T05:43:48.852Z,26.25
2022-11-30T05:46:15.828Z,26.38
2022-11-30T05:48:42.824Z,24.63
2022-11-30T05:51:18.047Z,25.58
2022-11-30T05:53:46.157Z,24.00
2022-11-30T05:56:18.975Z,25.63
2022-11-30T05:58:46.868Z,23.73
2022-11-30T06:01:25.036Z,24.25
2022-11-30T06:03:52.776Z,25.08
2022-11-30T06:06:20.140Z,23.35
2022-11-30T06:08:48.349Z,24.13
2022-11-30T06:11:16.632Z,25.27
2022-11-30T06:13:43.607Z,24.92
2022-11-30T06:16:10.746Z,24.10
2022-11-30T06:18:38.462Z,26.08
2022-11-30T06:21:09.364Z,27.95
2022-11-30T06:23:37.025Z,25.98
2022-11-30T06:26:05.714Z,24.90
2022-11-30T06:28:33.428Z,26.25
2022-11-30T06:31:01.364Z,26.88
2022-11-30T06:33:29.072Z,27.05
2022-11-30T06:35:56.149Z,26.75
2022-11-30T06:38:23.818Z,27.08
2022-11-30T06:40:50.813Z,26.52
2022-11-30T06:43:17.952Z,26.15
2022-11-30T06:45:46.770Z,25.77
2022-11-30T06:48:14.418Z,27.13
2022-11-30T06:50:46.861Z,26.98
2022-11-30T06:53:16.816Z,26.02
2022-11-30T06:55:43.742Z,25.50
2022-11-30T06:58:11.169Z,25.75
2022-11-30T07:00:39.017Z,25.80
2022-11-30T07:03:06.750Z,26.50
2022-11-30T07:05:40.246Z,25.98
2022-11-30T07:08:07.243Z,25.42
2022-11-30T07:10:34.544Z,25.88
2022-11-30T07:13:01.539Z,25.02
2022-11-30T07:15:28.541Z,25.50
2022-11-30T07:17:55.511Z,25.80
2022-11-30T07:20:22.465Z,26.88
2022-11-30T07:22:49.613Z,26.55
2022-11-30T07:25:34.975Z,25.88
2022-11-30T07:28:01.998Z,26.47
2022-11-30T07:30:31.458Z,27.70
2022-11-30T07:32:58.379Z,27.23
2022-11-30T07:35:25.563Z,28.92
2022-11-30T07:37:52.512Z,29.25
2022-11-30T07:40:19.882Z,27.92
2022-11-30T07:42:46.908Z,29.73
2022-11-30T07:45:13.999Z,27.38
2022-11-30T07:47:40.948Z,28.25
2022-11-30T07:50:08.259Z,27.48
2022-11-30T07:52:35.320Z,29.50
2022-11-30T07:55:02.377Z,27.48
2022-11-30T07:57:29.337Z,27.33
2022-11-30T07:59:56.265Z,27.30
2022-11-30T08:02:23.390Z,29.20
2022-11-30T08:04:51.368Z,28.08
2022-11-30T08:07:18.706Z,24.70
2022-11-30T08:09:45.747Z,23.63
2022-11-30T08:12:12.760Z,25.85
2022-11-30T08:15:11.177Z,24.95
2022-11-30T08:17:26.596Z,24.40
2022-11-30T08:19:53.722Z,25.17
2022-11-30T08:22:20.686Z,23.58
2022-11-30T08:24:47.934Z,24.65
2022-11-30T08:27:15.427Z,23.65
2022-11-30T08:29:42.423Z,22.98
2022-11-30T08:32:09.362Z,25.00
2022-11-30T08:34:36.263Z,24.65
2022-11-30T08:37:04.123Z,25.20
2022-11-30T08:39:34.238Z,25.13
2022-11-30T08:42:02.257Z,24.58
2022-11-30T08:44:29.696Z,24.90
2022-11-30T08:46:56.776Z,24.05
2022-11-30T08:49:24.907Z,24.40
2022-11-30T08:54:45.218Z,25.00
2022-11-30T08:57:12.646Z,26.98
2022-11-30T08:59:39.731Z,27.45
2022-11-30T09:02:08.546Z,24.98
2022-11-30T09:04:35.624Z,25.52
2022-11-30T09:07:03.612Z,24.60
2022-11-30T09:09:30.663Z,25.90
2022-11-30T09:11:57.715Z,25.80
2022-11-30T09:14:24.696Z,27.13
2022-11-30T09:16:53.444Z,28.83
2022-11-30T09:19:20.807Z,28.83
2022-11-30T09:21:51.988Z,26.88
2022-11-30T09:24:20.393Z,25.10
2022-11-30T09:26:47.971Z,26.15
2022-11-30T09:29:14.941Z,26.48
2022-11-30T09:31:41.926Z,25.92
2022-11-30T09:34:11.616Z,25.48
2022-11-30T09:36:38.677Z,24.42
2022-11-30T09:39:06.546Z,25.85
2022-11-30T09:42:10.759Z,24.88
2022-11-30T09:44:49.227Z,25.30
2022-11-30T09:47:27.666Z,23.27
2022-11-30T09:50:04.641Z,24.10
2022-11-30T09:52:42.662Z,25.10
2022-11-30T09:55:12.226Z,25.48
2022-11-30T09:58:02.784Z,25.67
2022-11-30T10:00:30.282Z,25.63
2022-11-30T10:02:59.248Z,25.77
2022-11-30T10:05:40.908Z,25.52
2022-11-30T10:08:08.216Z,25.98
2022-11-30T10:10:48.041Z,25.33
2022-11-30T10:13:36.379Z,25.02
2022-11-30T10:16:40.749Z,23.80
2022-11-30T10:19:26.245Z,23.92
2022-11-30T10:22:24.602Z,24.05
2022-11-30T10:25:21.154Z,23.95
2022-11-30T10:27:55.141Z,23.65
2022-11-30T10:30:24.262Z,24.55
2022-11-30T10:32:56.460Z,23.92
2022-11-30T10:35:40.564Z,25.08
2022-11-30T10:38:30.004Z,24.13
2022-11-30T10:41:06.440Z,24.13
2022-11-30T10:43:51.877Z,22.88
2022-11-30T10:46:33.863Z,23.33
2022-11-30T10:49:23.428Z,23.73
2022-11-30T10:51:55.122Z,23.75
2022-11-30T10:54:23.615Z,22.77
2022-11-30T10:56:50.731Z,23.38
2022-11-30T10:59:54.446Z,23.45
2022-11-30T11:02:41.776Z,23.58
2022-11-30T11:05:19.365Z,22.52
2022-11-30T11:08:05.777Z,23.17
2022-11-30T11:10:39.816Z,23.38
2022-11-30T11:13:15.629Z,23.77
2022-11-30T11:18:26.278Z,23.23
2022-11-30T11:21:20.426Z,23.27
2022-11-30T11:23:53.963Z,35.05
2022-11-30T11:26:29.164Z,26.85
2022-11-30T11:28:59.651Z,24.65
2022-11-30T11:31:32.249Z,22.30
2022-11-30T11:33:59.345Z,23.75
2022-11-30T11:36:36.960Z,23.27
2022-11-30T11:39:23.963Z,24.60
2022-11-30T11:41:52.688Z,23.17
2022-11-30T11:44:22.754Z,23.42
2022-11-30T11:47:06.959Z,23.15
2022-11-30T11:49:38.924Z,23.98
2022-11-30T11:52:11.685Z,22.80
2022-11-30T11:54:51.511Z,22.60
2022-11-30T11:57:22.811Z,23.02
2022-11-30T11:59:56.058Z,22.33
2022-11-30T12:02:39.371Z,22.30
2022-11-30T12:05:16.032Z,22.38
2022-11-30T12:08:13.222Z,22.42
2022-11-30T12:11:17.851Z,22.70
2022-11-30T12:13:46.839Z,23.73
2022-11-30T12:16:24.027Z,25.63
2022-11-30T12:19:15.178Z,22.63
2022-11-30T12:22:09.633Z,23.70
2022-11-30T12:25:05.955Z,22.88
2022-11-30T12:30:50.023Z,24.30
2022-11-30T12:33:41.389Z,23.10
2022-11-30T12:36:28.148Z,23.65
2022-11-30T12:39:05.305Z,22.95
2022-11-30T12:41:48.916Z,23.70
2022-11-30T12:44:42.175Z,23.88
2022-11-30T12:47:26.599Z,23.10
2022-11-30T12:50:08.628Z,22.48
2022-11-30T12:53:02.085Z,23.33
2022-11-30T12:55:47.041Z,24.63
2022-11-30T12:58:34.647Z,23.25
2022-11-30T13:01:22.716Z,23.35
2022-11-30T13:04:21.058Z,24.60
2022-11-30T13:07:23.134Z,24.00
2022-11-30T13:10:02.324Z,23.52
2022-11-30T13:12:37.861Z,23.02
2022-11-30T13:15:15.699Z,23.05
2022-11-30T13:17:44.012Z,24.08
2022-11-30T13:20:23.465Z,24.98
2022-11-30T13:23:00.557Z,24.08
2022-11-30T13:28:27.680Z,22.73
2022-11-30T13:31:24.280Z,24.05
2022-11-30T13:36:40.025Z,22.15
2022-11-30T13:39:21.460Z,24.35
2022-11-30T13:42:10.168Z,22.40
2022-11-30T13:44:40.256Z,20.73
2022-11-30T13:47:26.552Z,23.73
2022-11-30T13:53:03.420Z,21.20
2022-11-30T13:55:36.251Z,22.27
2022-11-30T13:58:07.415Z,22.23
2022-11-30T14:00:34.385Z,23.08
2022-11-30T14:03:07.113Z,22.20
2022-11-30T14:05:46.748Z,23.52
2022-11-30T14:08:22.876Z,22.33
2022-11-30T14:10:54.800Z,22.92
2022-11-30T14:13:29.085Z,21.70
2022-11-30T14:16:00.455Z,20.88
2022-11-30T14:18:40.573Z,22.25
2022-11-30T14:21:21.499Z,23.05
2022-11-30T14:24:06.809Z,22.40
2022-11-30T14:26:42.353Z,22.60
2022-11-30T14:29:16.766Z,21.50
2022-11-30T14:31:56.203Z,22.10
2022-11-30T14:34:32.894Z,21.90
2022-11-30T14:37:03.509Z,23.02
2022-11-30T14:39:41.802Z,22.95
2022-11-30T14:42:27.727Z,22.52
2022-11-30T14:44:56.383Z,21.40
2022-11-30T14:47:31.583Z,22.08
2022-11-30T14:50:02.746Z,21.48
2022-11-30T14:53:03.927Z,23.48
2022-11-30T14:55:40.818Z,21.33
2022-11-30T14:58:36.071Z,21.48
2022-11-30T15:01:17.489Z,19.95
2022-11-30T15:03:45.988Z,20.27
2022-11-30T15:06:18.802Z,21.00
2022-11-30T15:08:54.695Z,21.60
2022-11-30T15:11:22.753Z,20.45
2022-11-30T15:13:53.906Z,20.63
2022-11-30T15:16:28.869Z,19.95
2022-11-30T15:18:57.882Z,19.33
2022-11-30T15:21:27.243Z,19.60
2022-11-30T15:23:56.411Z,20.30
2022-11-30T15:26:29.173Z,21.48
2022-11-30T15:29:03.634Z,19.60
2022-11-30T15:31:45.991Z,19.52
2022-11-30T15:34:25.023Z,20.45
2022-11-30T15:36:56.773Z,20.13
2022-11-30T15:39:26.554Z,21.98
2022-11-30T15:41:59.068Z,19.42
2022-11-30T15:44:45.302Z,20.00
2022-11-30T15:49:56.272Z,18.67
2022-11-30T15:52:28.256Z,19.63
2022-11-30T15:54:58.832Z,19.80
2022-11-30T15:57:47.369Z,20.25
2022-11-30T16:00:14.349Z,19.50
2022-11-30T16:02:41.529Z,19.40
2022-11-30T16:05:15.540Z,19.40
2022-11-30T16:07:59.419Z,19.23
2022-11-30T16:10:32.092Z,19.58
2022-11-30T16:12:59.139Z,19.83
2022-11-30T16:15:30.996Z,20.85
2022-11-30T16:18:19.403Z,19.90
2022-11-30T16:20:55.067Z,20.52
2022-11-30T16:23:22.144Z,21.15
2022-11-30T16:25:50.082Z,20.55
2022-11-30T16:28:18.562Z,19.77
2022-11-30T16:30:46.403Z,22.42
2022-11-30T16:33:15.879Z,23.48
2022-11-30T16:35:50.574Z,21.88
2022-11-30T16:38:18.452Z,22.95
2022-11-30T16:40:45.716Z,21.15
2022-11-30T16:43:13.325Z,23.10
2022-11-30T16:45:43.798Z,22.33
2022-11-30T16:48:10.845Z,21.35
2022-11-30T16:50:37.977Z,22.65
2022-11-30T16:53:05.798Z,22.70
2022-11-30T16:55:37.764Z,22.50
2022-11-30T16:58:05.086Z,22.08
2022-11-30T17:00:32.978Z,21.95
2022-11-30T17:03:02.498Z,21.35
2022-11-30T17:05:29.475Z,23.08
2022-11-30T17:07:56.551Z,21.45
2022-11-30T17:10:23.819Z,21.80
2022-11-30T17:12:51.198Z,21.83
2022-11-30T17:15:22.367Z,21.42
2022-11-30T17:17:49.497Z,23.20
2022-11-30T17:20:17.332Z,24.65
2022-11-30T17:22:44.679Z,22.80
2022-11-30T17:25:18.314Z,23.33
2022-11-30T17:28:04.098Z,21.88
2022-11-30T17:30:31.158Z,23.50
2022-11-30T17:32:58.329Z,24.20
2022-11-30T17:35:25.365Z,22.98
2022-11-30T17:37:53.611Z,23.98
2022-11-30T17:40:20.599Z,25.30
2022-11-30T17:42:47.780Z,22.35
2022-11-30T17:45:15.006Z,22.33
2022-11-30T17:47:42.031Z,22.88
2022-11-30T17:50:09.441Z,22.65
2022-11-30T17:52:36.481Z,24.10
2022-11-30T17:55:03.627Z,22.83
2022-11-30T17:57:30.625Z,24.35
2022-11-30T17:59:57.619Z,25.17
2022-11-30T18:02:24.708Z,24.73
2022-11-30T18:04:52.640Z,23.63
2022-11-30T18:07:20.199Z,26.30
2022-11-30T18:09:47.446Z,23.95
2022-11-30T18:12:14.379Z,24.67
2022-11-30T18:14:41.377Z,25.02
2022-11-30T18:17:08.480Z,24.67
2022-11-30T18:19:35.527Z,25.23
2022-11-30T18:22:02.581Z,24.48
2022-11-30T18:24:29.652Z,25.63
2022-11-30T18:26:56.724Z,25.88
2022-11-30T18:29:23.747Z,25.70
2022-11-30T18:31:51.338Z,25.55
2022-11-30T18:34:18.415Z,23.25
2022-11-30T18:36:45.507Z,26.40
2022-11-30T18:39:12.670Z,25.50
2022-11-30T18:41:39.725Z,27.27
2022-11-30T18:44:06.801Z,26.48
2022-11-30T18:46:33.902Z,27.23
2022-11-30T18:49:01.740Z,27.10
2022-11-30T18:51:30.364Z,28.05
2022-11-30T18:54:02.500Z,27.50
2022-11-30T18:56:31.989Z,26.73
2022-11-30T18:59:13.273Z,26.85
2022-11-30T19:01:40.589Z,27.02
2022-11-30T19:04:10.272Z,26.85
2022-11-30T19:06:39.061Z,24.52
2022-11-30T19:09:09.002Z,25.00
2022-11-30T19:11:37.444Z,25.65
2022-11-30T19:14:05.208Z,24.83
2022-11-30T19:16:36.829Z,25.42
2022-11-30T19:19:07.237Z,26.30
2022-11-30T19:21:34.783Z,26.05
2022-11-30T19:24:01.795Z,26.58
2022-11-30T19:26:29.008Z,26.48
2022-11-30T19:28:57.155Z,26.17
2022-11-30T19:31:25.642Z,25.40
2022-11-30T19:33:55.084Z,23.67
2022-11-30T19:36:26.247Z,24.58
2022-11-30T19:38:53.827Z,25.15
2022-11-30T19:41:22.071Z,24.27
2022-11-30T19:44:02.877Z,26.48
2022-11-30T19:46:32.015Z,27.38
2022-11-30T19:49:01.322Z,25.63
2022-11-30T19:51:30.022Z,25.63
2022-11-30T19:53:57.603Z,25.90
2022-11-30T19:56:26.026Z,25.92
2022-11-30T19:58:53.283Z,29.13
2022-11-30T20:01:23.175Z,38.97
2022-11-30T20:03:55.956Z,34.97
2022-11-30T20:06:34.734Z,29.25
2022-11-30T20:09:03.350Z,27.70
2022-11-30T20:11:30.424Z,25.75
2022-11-30T20:13:58.401Z,25.90
2022-11-30T20:16:26.305Z,32.45
2022-11-30T20:19:03.176Z,24.77
2022-11-30T20:21:33.130Z,24.13
2022-11-30T20:24:02.161Z,23.65
2022-11-30T20:26:31.739Z,37.42
2022-11-30T20:29:00.326Z,23.10
2022-11-30T20:31:29.057Z,22.73
2022-11-30T20:33:56.092Z,22.83
2022-11-30T20:36:23.648Z,23.80
2022-11-30T20:38:51.356Z,21.63
2022-11-30T20:41:20.881Z,21.88
2022-11-30T20:43:48.363Z,26.60
2022-11-30T20:46:23.940Z,25.98
2022-11-30T20:48:51.510Z,25.52
2022-11-30T20:51:32.478Z,28.20
2022-11-30T20:54:02.247Z,31.65
2022-11-30T20:56:29.561Z,32.67
2022-11-30T20:58:56.712Z,26.95
2022-11-30T21:01:23.984Z,31.48
2022-11-30T21:03:51.020Z,27.17
2022-11-30T21:06:18.110Z,24.25
2022-11-30T21:08:45.261Z,24.40
2022-11-30T21:11:18.536Z,24.67
2022-11-30T21:13:48.292Z,24.02
2022-11-30T21:16:17.505Z,24.52
2022-11-30T21:18:46.529Z,22.58
2022-11-30T21:21:16.346Z,23.73
2022-11-30T21:23:44.077Z,23.38
2022-11-30T21:26:20.560Z,23.58
2022-11-30T21:28:49.233Z,24.25
2022-11-30T21:31:16.735Z,24.17
2022-11-30T21:33:50.946Z,23.50
2022-11-30T21:38:46.780Z,23.75
2022-11-30T21:41:14.578Z,25.20
2022-11-30T21:43:42.241Z,24.27
2022-11-30T21:46:13.063Z,25.05
2022-11-30T21:48:42.176Z,26.77
2022-11-30T21:51:12.028Z,25.20
2022-11-30T21:53:41.527Z,26.75
2022-11-30T21:56:12.695Z,26.65
2022-11-30T21:58:41.545Z,24.90
2022-11-30T22:01:12.945Z,25.83
2022-11-30T22:03:40.028Z,27.02
2022-11-30T22:06:09.982Z,26.52
2022-11-30T22:08:37.549Z,26.58
2022-11-30T22:11:08.000Z,26.35
2022-11-30T22:13:35.728Z,26.23
2022-11-30T22:16:08.891Z,27.20
2022-11-30T22:18:36.646Z,25.52
2022-11-30T22:21:16.067Z,26.17
2022-11-30T22:23:45.966Z,27.13
2022-11-30T22:26:18.821Z,25.33
2022-11-30T22:28:48.028Z,24.33
2022-11-30T22:31:16.822Z,25.05
2022-11-30T22:33:45.094Z,23.73
2022-11-30T22:36:27.168Z,24.88
2022-11-30T22:39:01.444Z,25.70
2022-11-30T22:41:29.171Z,25.67
2022-11-30T22:43:57.217Z,26.23
2022-11-30T22:46:29.737Z,27.85
2022-11-30T22:49:00.012Z,28.42
2022-11-30T22:51:28.912Z,27.65
2022-11-30T22:53:56.509Z,27.27
2022-11-30T22:56:26.164Z,27.30
2022-11-30T22:58:55.062Z,27.25
2022-11-30T23:01:33.676Z,27.23
2022-11-30T23:04:04.287Z,25.67
2022-11-30T23:06:31.685Z,26.75
2022-11-30T23:08:59.463Z,28.33
2022-11-30T23:11:27.676Z,25.85
2022-11-30T23:13:55.060Z,25.77
2022-11-30T23:16:22.675Z,25.45
2022-11-30T23:18:55.807Z,27.42
2022-11-30T23:21:30.103Z,27.02
2022-11-30T23:23:59.649Z,25.27
2022-11-30T23:26:29.324Z,26.75
2022-11-30T23:29:06.364Z,28.25
2022-11-30T23:31:36.044Z,26.92
2022-11-30T23:34:06.242Z,25.10
2022-11-30T23:36:34.484Z,27.80
2022-11-30T23:39:06.896Z,28.70
2022-11-30T23:41:34.250Z,28.17
2022-11-30T23:44:01.742Z,29.42
2022-11-30T23:46:29.391Z,26.98
2022-11-30T23:48:56.718Z,27.10
2022-11-30T23:51:24.311Z,27.75
2022-11-30T23:53:51.596Z,28.33
2022-11-30T23:56:20.717Z,27.02
2022-11-30T23:58:48.344Z,26.25
